sensor_id;sensor_type;location;lat;lon;timestamp;P1;durP1;ratioP1;P2;durP2;ratioP2
31652;SDS011;18261;53.648;9.910;2022-12-16T00:01:22;65.65;;;30.17;;
31652;SDS011;18261;53.648;9.910;2022-12-16T00:03:49;59.25;;;29.10;;
31652;SDS011;18261;53.648;9.910;2022-12-16T00:06:15;60.58;;;30.35;;
31652;SDS011;18261;53.648;9.910;2022-12-16T00:08:41;65.88;;;29.33;;
31652;SDS011;18261;53.648;9.910;2022-12-16T00:11:07;54.50;;;27.88;;
31652;SDS011;18261;53.648;9.910;2022-12-16T00:13:34;63.50;;;29.98;;
31652;SDS011;18261;53.648;9.910;2022-12-16T00:16:04;64.28;;;28.23;;
31652;SDS011;18261;53.648;9.910;2022-12-16T00:18:30;66.60;;;28.50;;
31652;SDS011;18261;53.648;9.910;2022-12-16T00:20:56;61.42;;;29.08;;
31652;SDS011;18261;53.648;9.910;2022-12-16T00:23:22;60.40;;;30.42;;
31652;SDS011;18261;53.648;9.910;2022-12-16T00:25:48;61.67;;;29.92;;
31652;SDS011;18261;53.648;9.910;2022-12-16T00:28:15;56.90;;;28.55;;
31652;SDS011;18261;53.648;9.910;2022-12-16T00:30:41;57.42;;;28.83;;
31652;SDS011;18261;53.648;9.910;2022-12-16T00:33:07;61.30;;;29.17;;
31652;SDS011;18261;53.648;9.910;2022-12-16T00:35:34;58.20;;;28.63;;
31652;SDS011;18261;53.648;9.910;2022-12-16T00:37:59;62.88;;;30.75;;
31652;SDS011;18261;53.648;9.910;2022-12-16T00:40:25;57.95;;;30.48;;
31652;SDS011;18261;53.648;9.910;2022-12-16T00:42:51;60.05;;;29.42;;
31652;SDS011;18261;53.648;9.910;2022-12-16T00:45:18;68.68;;;30.90;;
31652;SDS011;18261;53.648;9.910;2022-12-16T00:47:48;55.60;;;27.85;;
31652;SDS011;18261;53.648;9.910;2022-12-16T00:50:14;68.30;;;29.83;;
31652;SDS011;18261;53.648;9.910;2022-12-16T00:52:40;62.75;;;29.35;;
31652;SDS011;18261;53.648;9.910;2022-12-16T00:55:07;64.47;;;30.05;;
31652;SDS011;18261;53.648;9.910;2022-12-16T00:57:33;58.05;;;28.92;;
31652;SDS011;18261;53.648;9.910;2022-12-16T00:59:59;57.72;;;29.77;;
31652;SDS011;18261;53.648;9.910;2022-12-16T01:02:25;57.13;;;30.15;;
31652;SDS011;18261;53.648;9.910;2022-12-16T01:04:51;59.00;;;29.65;;
31652;SDS011;18261;53.648;9.910;2022-12-16T01:07:17;63.47;;;29.60;;
31652;SDS011;18261;53.648;9.910;2022-12-16T01:09:43;57.03;;;29.73;;
31652;SDS011;18261;53.648;9.910;2022-12-16T01:12:09;63.38;;;30.45;;
31652;SDS011;18261;53.648;9.910;2022-12-16T01:14:35;59.88;;;30.77;;
31652;SDS011;18261;53.648;9.910;2022-12-16T01:17:01;63.45;;;30.20;;
31652;SDS011;18261;53.648;9.910;2022-12-16T01:19:27;62.38;;;30.58;;
31652;SDS011;18261;53.648;9.910;2022-12-16T01:21:53;58.88;;;29.58;;
31652;SDS011;18261;53.648;9.910;2022-12-16T01:24:19;61.72;;;30.55;;
31652;SDS011;18261;53.648;9.910;2022-12-16T01:26:45;63.25;;;29.27;;
31652;SDS011;18261;53.648;9.910;2022-12-16T01:29:11;67.20;;;30.70;;
31652;SDS011;18261;53.648;9.910;2022-12-16T01:31:37;62.50;;;30.95;;
31652;SDS011;18261;53.648;9.910;2022-12-16T01:34:03;62.88;;;31.58;;
31652;SDS011;18261;53.648;9.910;2022-12-16T01:36:29;61.13;;;31.33;;
31652;SDS011;18261;53.648;9.910;2022-12-16T01:38:55;61.70;;;31.17;;
31652;SDS011;18261;53.648;9.910;2022-12-16T01:41:21;56.38;;;30.30;;
31652;SDS011;18261;53.648;9.910;2022-12-16T01:43:47;69.90;;;30.58;;
31652;SDS011;18261;53.648;9.910;2022-12-16T01:51:20;65.28;;;32.05;;
31652;SDS011;18261;53.648;9.910;2022-12-16T01:53:48;70.78;;;31.98;;
31652;SDS011;18261;53.648;9.910;2022-12-16T01:56:15;68.03;;;32.88;;
31652;SDS011;18261;53.648;9.910;2022-12-16T01:58:42;62.50;;;31.55;;
31652;SDS011;18261;53.648;9.910;2022-12-16T02:01:08;73.55;;;33.33;;
31652;SDS011;18261;53.648;9.910;2022-12-16T02:03:35;67.20;;;31.83;;
31652;SDS011;18261;53.648;9.910;2022-12-16T02:06:02;67.28;;;32.38;;
31652;SDS011;18261;53.648;9.910;2022-12-16T02:08:28;68.00;;;32.97;;
31652;SDS011;18261;53.648;9.910;2022-12-16T02:13:49;68.30;;;33.72;;
31652;SDS011;18261;53.648;9.910;2022-12-16T02:16:19;65.95;;;32.35;;
31652;SDS011;18261;53.648;9.910;2022-12-16T02:21:37;77.00;;;33.85;;
31652;SDS011;18261;53.648;9.910;2022-12-16T02:24:14;61.60;;;31.67;;
31652;SDS011;18261;53.648;9.910;2022-12-16T02:32:16;66.53;;;33.03;;
31652;SDS011;18261;53.648;9.910;2022-12-16T02:37:17;71.40;;;32.40;;
31652;SDS011;18261;53.648;9.910;2022-12-16T02:39:48;66.47;;;32.63;;
31652;SDS011;18261;53.648;9.910;2022-12-16T02:42:16;75.88;;;34.55;;
31652;SDS011;18261;53.648;9.910;2022-12-16T02:44:47;70.38;;;33.33;;
31652;SDS011;18261;53.648;9.910;2022-12-16T02:47:16;69.10;;;32.00;;
31652;SDS011;18261;53.648;9.910;2022-12-16T02:49:44;66.07;;;32.90;;
31652;SDS011;18261;53.648;9.910;2022-12-16T02:52:10;70.35;;;33.75;;
31652;SDS011;18261;53.648;9.910;2022-12-16T02:54:37;69.25;;;34.13;;
31652;SDS011;18261;53.648;9.910;2022-12-16T03:02:45;65.68;;;32.25;;
31652;SDS011;18261;53.648;9.910;2022-12-16T03:04:51;64.65;;;32.35;;
31652;SDS011;18261;53.648;9.910;2022-12-16T03:07:20;71.18;;;32.40;;
31652;SDS011;18261;53.648;9.910;2022-12-16T03:09:47;70.15;;;33.20;;
31652;SDS011;18261;53.648;9.910;2022-12-16T03:12:15;67.32;;;32.08;;
31652;SDS011;18261;53.648;9.910;2022-12-16T03:14:42;65.70;;;32.75;;
31652;SDS011;18261;53.648;9.910;2022-12-16T03:17:09;66.15;;;33.85;;
31652;SDS011;18261;53.648;9.910;2022-12-16T03:19:36;62.47;;;31.55;;
31652;SDS011;18261;53.648;9.910;2022-12-16T03:22:05;64.65;;;33.15;;
31652;SDS011;18261;53.648;9.910;2022-12-16T03:24:32;70.53;;;33.30;;
31652;SDS011;18261;53.648;9.910;2022-12-16T03:27:00;68.78;;;32.05;;
31652;SDS011;18261;53.648;9.910;2022-12-16T03:29:37;63.15;;;31.50;;
31652;SDS011;18261;53.648;9.910;2022-12-16T03:32:10;62.85;;;30.67;;
31652;SDS011;18261;53.648;9.910;2022-12-16T03:37:07;63.88;;;30.45;;
31652;SDS011;18261;53.648;9.910;2022-12-16T03:39:34;70.28;;;34.00;;
31652;SDS011;18261;53.648;9.910;2022-12-16T03:42:01;60.90;;;31.60;;
31652;SDS011;18261;53.648;9.910;2022-12-16T03:44:28;63.17;;;31.50;;
31652;SDS011;18261;53.648;9.910;2022-12-16T03:46:54;69.90;;;33.13;;
31652;SDS011;18261;53.648;9.910;2022-12-16T03:49:21;61.55;;;32.08;;
31652;SDS011;18261;53.648;9.910;2022-12-16T03:51:47;67.93;;;33.67;;
31652;SDS011;18261;53.648;9.910;2022-12-16T03:54:13;62.97;;;32.72;;
31652;SDS011;18261;53.648;9.910;2022-12-16T03:56:39;63.92;;;31.67;;
31652;SDS011;18261;53.648;9.910;2022-12-16T03:59:05;66.20;;;32.83;;
31652;SDS011;18261;53.648;9.910;2022-12-16T04:01:31;64.25;;;32.05;;
31652;SDS011;18261;53.648;9.910;2022-12-16T04:03:57;67.90;;;33.63;;
31652;SDS011;18261;53.648;9.910;2022-12-16T04:06:23;65.55;;;33.08;;
31652;SDS011;18261;53.648;9.910;2022-12-16T04:08:49;73.65;;;34.13;;
31652;SDS011;18261;53.648;9.910;2022-12-16T04:11:15;65.70;;;32.05;;
31652;SDS011;18261;53.648;9.910;2022-12-16T04:14:00;70.72;;;34.38;;
31652;SDS011;18261;53.648;9.910;2022-12-16T04:16:44;66.20;;;32.65;;
31652;SDS011;18261;53.648;9.910;2022-12-16T04:19:30;67.63;;;34.78;;
31652;SDS011;18261;53.648;9.910;2022-12-16T04:22:22;69.00;;;34.45;;
31652;SDS011;18261;53.648;9.910;2022-12-16T04:25:14;72.88;;;35.58;;
31652;SDS011;18261;53.648;9.910;2022-12-16T04:27:41;73.15;;;36.22;;
31652;SDS011;18261;53.648;9.910;2022-12-16T04:30:13;76.53;;;35.72;;
31652;SDS011;18261;53.648;9.910;2022-12-16T04:32:43;68.93;;;34.80;;
31652;SDS011;18261;53.648;9.910;2022-12-16T04:38:12;52.77;;;25.03;;
31652;SDS011;18261;53.648;9.910;2022-12-16T04:40:57;75.07;;;35.22;;
31652;SDS011;18261;53.648;9.910;2022-12-16T04:43:41;80.65;;;36.55;;
31652;SDS011;18261;53.648;9.910;2022-12-16T04:46:26;71.07;;;35.28;;
31652;SDS011;18261;53.648;9.910;2022-12-16T04:49:10;70.85;;;36.15;;
31652;SDS011;18261;53.648;9.910;2022-12-16T04:51:55;75.55;;;35.63;;
31652;SDS011;18261;53.648;9.910;2022-12-16T04:54:40;74.95;;;35.92;;
31652;SDS011;18261;53.648;9.910;2022-12-16T04:57:24;74.72;;;35.17;;
31652;SDS011;18261;53.648;9.910;2022-12-16T05:00:09;74.20;;;34.00;;
31652;SDS011;18261;53.648;9.910;2022-12-16T05:02:55;80.65;;;36.88;;
31652;SDS011;18261;53.648;9.910;2022-12-16T05:05:39;71.00;;;33.67;;
31652;SDS011;18261;53.648;9.910;2022-12-16T05:11:09;54.92;;;25.02;;
31652;SDS011;18261;53.648;9.910;2022-12-16T05:13:54;75.82;;;37.13;;
31652;SDS011;18261;53.648;9.910;2022-12-16T05:16:38;76.47;;;38.03;;
31652;SDS011;18261;53.648;9.910;2022-12-16T05:19:23;81.78;;;40.33;;
31652;SDS011;18261;53.648;9.910;2022-12-16T05:22:07;77.55;;;36.72;;
31652;SDS011;18261;53.648;9.910;2022-12-16T05:24:52;76.32;;;35.03;;
31652;SDS011;18261;53.648;9.910;2022-12-16T05:27:36;73.95;;;35.85;;
31652;SDS011;18261;53.648;9.910;2022-12-16T05:30:21;71.65;;;35.70;;
31652;SDS011;18261;53.648;9.910;2022-12-16T05:33:06;69.37;;;34.87;;
31652;SDS011;18261;53.648;9.910;2022-12-16T05:35:50;70.10;;;34.88;;
31652;SDS011;18261;53.648;9.910;2022-12-16T05:38:35;69.78;;;35.45;;
31652;SDS011;18261;53.648;9.910;2022-12-16T05:41:19;72.78;;;34.95;;
31652;SDS011;18261;53.648;9.910;2022-12-16T05:44:04;65.95;;;34.97;;
31652;SDS011;18261;53.648;9.910;2022-12-16T05:46:49;71.97;;;35.03;;
31652;SDS011;18261;53.648;9.910;2022-12-16T05:49:33;67.97;;;32.70;;
31652;SDS011;18261;53.648;9.910;2022-12-16T05:52:18;72.28;;;36.20;;
31652;SDS011;18261;53.648;9.910;2022-12-16T05:55:03;68.93;;;34.33;;
31652;SDS011;18261;53.648;9.910;2022-12-16T06:00:33;69.47;;;33.93;;
31652;SDS011;18261;53.648;9.910;2022-12-16T06:03:17;66.95;;;34.33;;
31652;SDS011;18261;53.648;9.910;2022-12-16T06:06:02;69.70;;;33.92;;
31652;SDS011;18261;53.648;9.910;2022-12-16T06:08:47;58.85;;;31.15;;
31652;SDS011;18261;53.648;9.910;2022-12-16T06:11:31;70.85;;;34.25;;
31652;SDS011;18261;53.648;9.910;2022-12-16T06:14:16;68.57;;;35.63;;
31652;SDS011;18261;53.648;9.910;2022-12-16T06:17:00;71.32;;;35.60;;
31652;SDS011;18261;53.648;9.910;2022-12-16T06:19:45;67.95;;;35.03;;
31652;SDS011;18261;53.648;9.910;2022-12-16T06:22:30;78.13;;;37.08;;
31652;SDS011;18261;53.648;9.910;2022-12-16T06:25:16;82.07;;;35.80;;
31652;SDS011;18261;53.648;9.910;2022-12-16T06:28:00;75.43;;;34.10;;
31652;SDS011;18261;53.648;9.910;2022-12-16T06:30:45;77.88;;;36.65;;
31652;SDS011;18261;53.648;9.910;2022-12-16T06:33:29;65.55;;;33.78;;
31652;SDS011;18261;53.648;9.910;2022-12-16T06:36:14;70.85;;;34.72;;
31652;SDS011;18261;53.648;9.910;2022-12-16T06:38:58;73.38;;;34.10;;
31652;SDS011;18261;53.648;9.910;2022-12-16T06:41:43;66.63;;;34.47;;
31652;SDS011;18261;53.648;9.910;2022-12-16T06:44:28;79.53;;;35.22;;
31652;SDS011;18261;53.648;9.910;2022-12-16T06:47:12;77.03;;;36.08;;
31652;SDS011;18261;53.648;9.910;2022-12-16T06:49:57;77.78;;;35.38;;
31652;SDS011;18261;53.648;9.910;2022-12-16T06:52:42;67.97;;;34.22;;
31652;SDS011;18261;53.648;9.910;2022-12-16T06:55:27;75.45;;;35.38;;
31652;SDS011;18261;53.648;9.910;2022-12-16T06:58:11;68.95;;;34.17;;
31652;SDS011;18261;53.648;9.910;2022-12-16T07:00:56;74.50;;;36.97;;
31652;SDS011;18261;53.648;9.910;2022-12-16T07:03:41;69.03;;;35.03;;
31652;SDS011;18261;53.648;9.910;2022-12-16T07:06:25;73.95;;;35.38;;
31652;SDS011;18261;53.648;9.910;2022-12-16T07:09:10;73.47;;;35.78;;
31652;SDS011;18261;53.648;9.910;2022-12-16T07:11:55;73.65;;;35.85;;
31652;SDS011;18261;53.648;9.910;2022-12-16T07:14:39;69.20;;;35.28;;
31652;SDS011;18261;53.648;9.910;2022-12-16T07:17:24;74.47;;;34.85;;
31652;SDS011;18261;53.648;9.910;2022-12-16T07:20:08;71.55;;;35.30;;
31652;SDS011;18261;53.648;9.910;2022-12-16T07:22:53;73.45;;;35.45;;
31652;SDS011;18261;53.648;9.910;2022-12-16T07:25:38;81.22;;;35.13;;
31652;SDS011;18261;53.648;9.910;2022-12-16T07:28:23;73.25;;;36.30;;
31652;SDS011;18261;53.648;9.910;2022-12-16T07:33:52;75.60;;;36.70;;
31652;SDS011;18261;53.648;9.910;2022-12-16T07:36:37;69.63;;;35.78;;
31652;SDS011;18261;53.648;9.910;2022-12-16T07:39:22;80.30;;;39.92;;
31652;SDS011;18261;53.648;9.910;2022-12-16T07:42:06;79.65;;;37.92;;
31652;SDS011;18261;53.648;9.910;2022-12-16T07:44:51;74.50;;;37.50;;
31652;SDS011;18261;53.648;9.910;2022-12-16T07:47:36;75.43;;;37.33;;
31652;SDS011;18261;53.648;9.910;2022-12-16T07:53:06;85.83;;;38.07;;
31652;SDS011;18261;53.648;9.910;2022-12-16T07:55:51;81.15;;;38.58;;
31652;SDS011;18261;53.648;9.910;2022-12-16T07:58:36;88.00;;;36.67;;
31652;SDS011;18261;53.648;9.910;2022-12-16T08:01:20;86.30;;;39.65;;
31652;SDS011;18261;53.648;9.910;2022-12-16T08:04:05;80.22;;;38.08;;
31652;SDS011;18261;53.648;9.910;2022-12-16T08:06:49;76.80;;;37.20;;
31652;SDS011;18261;53.648;9.910;2022-12-16T08:09:34;83.20;;;39.38;;
31652;SDS011;18261;53.648;9.910;2022-12-16T08:12:18;85.57;;;40.45;;
31652;SDS011;18261;53.648;9.910;2022-12-16T08:15:03;80.15;;;37.85;;
31652;SDS011;18261;53.648;9.910;2022-12-16T08:17:48;77.03;;;38.70;;
31652;SDS011;18261;53.648;9.910;2022-12-16T08:20:33;73.78;;;37.25;;
31652;SDS011;18261;53.648;9.910;2022-12-16T08:23:18;76.75;;;36.65;;
31652;SDS011;18261;53.648;9.910;2022-12-16T08:26:02;87.20;;;39.63;;
31652;SDS011;18261;53.648;9.910;2022-12-16T08:28:47;83.95;;;42.28;;
31652;SDS011;18261;53.648;9.910;2022-12-16T08:31:32;79.07;;;37.97;;
31652;SDS011;18261;53.648;9.910;2022-12-16T08:34:17;76.82;;;37.97;;
31652;SDS011;18261;53.648;9.910;2022-12-16T08:37:02;81.22;;;38.60;;
31652;SDS011;18261;53.648;9.910;2022-12-16T08:39:46;80.97;;;39.25;;
31652;SDS011;18261;53.648;9.910;2022-12-16T08:42:31;81.68;;;40.50;;
31652;SDS011;18261;53.648;9.910;2022-12-16T08:45:15;78.13;;;39.60;;
31652;SDS011;18261;53.648;9.910;2022-12-16T08:48:00;78.35;;;38.67;;
31652;SDS011;18261;53.648;9.910;2022-12-16T08:50:45;76.78;;;39.22;;
31652;SDS011;18261;53.648;9.910;2022-12-16T08:53:29;72.80;;;39.10;;
31652;SDS011;18261;53.648;9.910;2022-12-16T08:56:15;74.78;;;36.63;;
31652;SDS011;18261;53.648;9.910;2022-12-16T08:58:59;87.88;;;41.70;;
31652;SDS011;18261;53.648;9.910;2022-12-16T09:04:28;78.00;;;39.40;;
31652;SDS011;18261;53.648;9.910;2022-12-16T09:07:13;80.53;;;39.25;;
31652;SDS011;18261;53.648;9.910;2022-12-16T09:09:58;81.32;;;40.88;;
31652;SDS011;18261;53.648;9.910;2022-12-16T09:12:42;80.45;;;39.15;;
31652;SDS011;18261;53.648;9.910;2022-12-16T09:15:27;80.63;;;39.63;;
31652;SDS011;18261;53.648;9.910;2022-12-16T09:18:12;82.00;;;41.50;;
31652;SDS011;18261;53.648;9.910;2022-12-16T09:20:57;83.97;;;41.83;;
31652;SDS011;18261;53.648;9.910;2022-12-16T09:23:42;85.45;;;40.55;;
31652;SDS011;18261;53.648;9.910;2022-12-16T09:29:11;119.17;;;53.30;;
31652;SDS011;18261;53.648;9.910;2022-12-16T09:32:19;75.95;;;38.83;;
31652;SDS011;18261;53.648;9.910;2022-12-16T09:35:04;88.85;;;42.95;;
31652;SDS011;18261;53.648;9.910;2022-12-16T09:37:48;81.78;;;40.05;;
31652;SDS011;18261;53.648;9.910;2022-12-16T09:40:33;89.80;;;42.90;;
31652;SDS011;18261;53.648;9.910;2022-12-16T09:43:34;83.38;;;41.33;;
31652;SDS011;18261;53.648;9.910;2022-12-16T09:49:40;83.97;;;40.80;;
31652;SDS011;18261;53.648;9.910;2022-12-16T09:52:25;85.68;;;41.67;;
31652;SDS011;18261;53.648;9.910;2022-12-16T09:55:30;87.43;;;41.90;;
31652;SDS011;18261;53.648;9.910;2022-12-16T09:58:16;81.40;;;42.45;;
31652;SDS011;18261;53.648;9.910;2022-12-16T10:01:01;89.47;;;42.80;;
31652;SDS011;18261;53.648;9.910;2022-12-16T10:03:46;80.65;;;42.50;;
31652;SDS011;18261;53.648;9.910;2022-12-16T10:07:04;93.47;;;44.45;;
31652;SDS011;18261;53.648;9.910;2022-12-16T10:09:45;86.05;;;41.78;;
31652;SDS011;18261;53.648;9.910;2022-12-16T10:18:36;87.80;;;42.50;;
31652;SDS011;18261;53.648;9.910;2022-12-16T10:21:26;83.05;;;41.97;;
31652;SDS011;18261;53.648;9.910;2022-12-16T10:27:17;82.65;;;41.20;;
31652;SDS011;18261;53.648;9.910;2022-12-16T10:30:06;94.55;;;43.30;;
31652;SDS011;18261;53.648;9.910;2022-12-16T10:32:55;84.75;;;42.83;;
31652;SDS011;18261;53.648;9.910;2022-12-16T10:41:16;86.82;;;42.97;;
31652;SDS011;18261;53.648;9.910;2022-12-16T10:44:01;87.45;;;42.78;;
31652;SDS011;18261;53.648;9.910;2022-12-16T10:46:48;85.03;;;42.95;;
31652;SDS011;18261;53.648;9.910;2022-12-16T10:49:33;96.32;;;47.28;;
31652;SDS011;18261;53.648;9.910;2022-12-16T10:52:17;93.57;;;45.50;;
31652;SDS011;18261;53.648;9.910;2022-12-16T11:00:39;84.00;;;43.28;;
31652;SDS011;18261;53.648;9.910;2022-12-16T11:03:24;95.10;;;45.30;;
31652;SDS011;18261;53.648;9.910;2022-12-16T11:06:10;82.85;;;42.58;;
31652;SDS011;18261;53.648;9.910;2022-12-16T11:09:02;84.18;;;43.08;;
31652;SDS011;18261;53.648;9.910;2022-12-16T11:15:17;92.82;;;43.42;;
31652;SDS011;18261;53.648;9.910;2022-12-16T11:18:10;95.32;;;45.40;;
31652;SDS011;18261;53.648;9.910;2022-12-16T11:21:12;94.15;;;45.00;;
31652;SDS011;18261;53.648;9.910;2022-12-16T11:24:14;88.30;;;43.50;;
31652;SDS011;18261;53.648;9.910;2022-12-16T11:27:00;83.15;;;42.80;;
31652;SDS011;18261;53.648;9.910;2022-12-16T11:29:54;90.05;;;45.58;;
31652;SDS011;18261;53.648;9.910;2022-12-16T11:32:41;92.45;;;44.17;;
31652;SDS011;18261;53.648;9.910;2022-12-16T11:35:28;93.10;;;43.90;;
31652;SDS011;18261;53.648;9.910;2022-12-16T11:38:20;83.60;;;42.88;;
31652;SDS011;18261;53.648;9.910;2022-12-16T11:41:06;91.95;;;42.92;;
31652;SDS011;18261;53.648;9.910;2022-12-16T11:43:51;83.88;;;43.85;;
31652;SDS011;18261;53.648;9.910;2022-12-16T11:46:37;100.80;;;44.80;;
31652;SDS011;18261;53.648;9.910;2022-12-16T11:49:26;103.32;;;47.85;;
31652;SDS011;18261;53.648;9.910;2022-12-16T11:52:12;93.57;;;43.55;;
31652;SDS011;18261;53.648;9.910;2022-12-16T12:00:44;86.07;;;42.65;;
31652;SDS011;18261;53.648;9.910;2022-12-16T12:03:32;85.00;;;43.25;;
31652;SDS011;18261;53.648;9.910;2022-12-16T12:06:26;79.80;;;41.42;;
31652;SDS011;18261;53.648;9.910;2022-12-16T12:09:20;88.45;;;43.50;;
31652;SDS011;18261;53.648;9.910;2022-12-16T12:12:18;82.57;;;41.85;;
31652;SDS011;18261;53.648;9.910;2022-12-16T12:18:14;98.68;;;44.85;;
31652;SDS011;18261;53.648;9.910;2022-12-16T12:26:34;89.60;;;44.20;;
31652;SDS011;18261;53.648;9.910;2022-12-16T12:32:17;87.45;;;45.85;;
31652;SDS011;18261;53.648;9.910;2022-12-16T12:35:16;86.20;;;43.30;;
31652;SDS011;18261;53.648;9.910;2022-12-16T12:38:04;82.22;;;42.22;;
31652;SDS011;18261;53.648;9.910;2022-12-16T12:43:50;83.22;;;42.95;;
31652;SDS011;18261;53.648;9.910;2022-12-16T12:46:56;97.07;;;50.35;;
31652;SDS011;18261;53.648;9.910;2022-12-16T12:58:39;81.70;;;43.65;;
31652;SDS011;18261;53.648;9.910;2022-12-16T13:01:26;83.28;;;42.72;;
31652;SDS011;18261;53.648;9.910;2022-12-16T13:04:14;84.90;;;43.40;;
31652;SDS011;18261;53.648;9.910;2022-12-16T13:07:00;88.55;;;45.83;;
31652;SDS011;18261;53.648;9.910;2022-12-16T13:09:45;93.68;;;44.42;;
31652;SDS011;18261;53.648;9.910;2022-12-16T13:13:03;91.35;;;43.28;;
31652;SDS011;18261;53.648;9.910;2022-12-16T13:15:54;83.80;;;43.13;;
31652;SDS011;18261;53.648;9.910;2022-12-16T13:18:39;89.13;;;44.45;;
31652;SDS011;18261;53.648;9.910;2022-12-16T13:27:09;91.20;;;45.67;;
31652;SDS011;18261;53.648;9.910;2022-12-16T13:30:16;83.90;;;43.08;;
31652;SDS011;18261;53.648;9.910;2022-12-16T13:36:05;112.25;;;53.92;;
31652;SDS011;18261;53.648;9.910;2022-12-16T13:38:50;82.55;;;44.28;;
31652;SDS011;18261;53.648;9.910;2022-12-16T13:45:13;81.88;;;43.50;;
31652;SDS011;18261;53.648;9.910;2022-12-16T13:47:57;83.60;;;44.65;;
31652;SDS011;18261;53.648;9.910;2022-12-16T13:50:40;87.72;;;43.78;;
31652;SDS011;18261;53.648;9.910;2022-12-16T13:53:31;88.50;;;45.50;;
31652;SDS011;18261;53.648;9.910;2022-12-16T13:56:22;89.82;;;45.33;;
31652;SDS011;18261;53.648;9.910;2022-12-16T13:59:15;84.88;;;45.35;;
31652;SDS011;18261;53.648;9.910;2022-12-16T14:02:02;81.18;;;43.17;;
31652;SDS011;18261;53.648;9.910;2022-12-16T14:04:55;79.55;;;42.70;;
31652;SDS011;18261;53.648;9.910;2022-12-16T14:07:40;82.60;;;42.70;;
31652;SDS011;18261;53.648;9.910;2022-12-16T14:10:35;87.95;;;42.38;;
31652;SDS011;18261;53.648;9.910;2022-12-16T14:13:26;86.50;;;42.95;;
31652;SDS011;18261;53.648;9.910;2022-12-16T14:19:25;77.60;;;41.78;;
31652;SDS011;18261;53.648;9.910;2022-12-16T14:25:20;79.10;;;41.63;;
31652;SDS011;18261;53.648;9.910;2022-12-16T14:31:11;84.97;;;41.80;;
31652;SDS011;18261;53.648;9.910;2022-12-16T14:33:58;80.30;;;42.45;;
31652;SDS011;18261;53.648;9.910;2022-12-16T14:36:44;86.43;;;42.67;;
31652;SDS011;18261;53.648;9.910;2022-12-16T14:39:38;91.55;;;45.15;;
31652;SDS011;18261;53.648;9.910;2022-12-16T14:42:27;83.28;;;45.25;;
31652;SDS011;18261;53.648;9.910;2022-12-16T14:45:25;79.78;;;43.50;;
31652;SDS011;18261;53.648;9.910;2022-12-16T14:57:10;91.90;;;46.08;;
31652;SDS011;18261;53.648;9.910;2022-12-16T14:59:58;86.30;;;44.00;;
31652;SDS011;18261;53.648;9.910;2022-12-16T15:02:43;87.85;;;45.55;;
31652;SDS011;18261;53.648;9.910;2022-12-16T15:05:30;89.20;;;46.10;;
31652;SDS011;18261;53.648;9.910;2022-12-16T15:08:16;97.32;;;49.53;;
31652;SDS011;18261;53.648;9.910;2022-12-16T15:11:02;88.25;;;46.17;;
31652;SDS011;18261;53.648;9.910;2022-12-16T15:13:47;100.65;;;46.10;;
31652;SDS011;18261;53.648;9.910;2022-12-16T15:16:36;95.57;;;49.03;;
31652;SDS011;18261;53.648;9.910;2022-12-16T15:19:21;87.13;;;45.95;;
31652;SDS011;18261;53.648;9.910;2022-12-16T15:22:14;90.43;;;45.85;;
31652;SDS011;18261;53.648;9.910;2022-12-16T15:24:59;90.72;;;46.58;;
31652;SDS011;18261;53.648;9.910;2022-12-16T15:33:17;85.53;;;46.15;;
31652;SDS011;18261;53.648;9.910;2022-12-16T15:36:02;88.78;;;46.17;;
31652;SDS011;18261;53.648;9.910;2022-12-16T15:38:48;95.07;;;49.58;;
31652;SDS011;18261;53.648;9.910;2022-12-16T15:41:34;100.93;;;49.55;;
31652;SDS011;18261;53.648;9.910;2022-12-16T15:44:20;95.00;;;49.67;;
31652;SDS011;18261;53.648;9.910;2022-12-16T15:47:16;90.72;;;46.28;;
31652;SDS011;18261;53.648;9.910;2022-12-16T15:50:02;84.47;;;44.33;;
31652;SDS011;18261;53.648;9.910;2022-12-16T15:52:48;85.25;;;44.10;;
31652;SDS011;18261;53.648;9.910;2022-12-16T15:55:34;99.80;;;49.92;;
31652;SDS011;18261;53.648;9.910;2022-12-16T16:01:03;100.30;;;49.88;;
31652;SDS011;18261;53.648;9.910;2022-12-16T16:03:50;99.82;;;50.20;;
31652;SDS011;18261;53.648;9.910;2022-12-16T16:06:35;91.45;;;47.50;;
31652;SDS011;18261;53.648;9.910;2022-12-16T16:12:11;99.22;;;52.83;;
31652;SDS011;18261;53.648;9.910;2022-12-16T16:14:56;112.13;;;55.70;;
31652;SDS011;18261;53.648;9.910;2022-12-16T16:17:41;108.75;;;55.38;;
31652;SDS011;18261;53.648;9.910;2022-12-16T16:23:11;113.93;;;52.70;;
31652;SDS011;18261;53.648;9.910;2022-12-16T16:25:55;107.00;;;54.42;;
31652;SDS011;18261;53.648;9.910;2022-12-16T16:28:41;106.97;;;54.92;;
31652;SDS011;18261;53.648;9.910;2022-12-16T16:31:25;117.50;;;57.90;;
31652;SDS011;18261;53.648;9.910;2022-12-16T16:34:11;119.55;;;58.13;;
31652;SDS011;18261;53.648;9.910;2022-12-16T16:36:56;117.70;;;56.50;;
31652;SDS011;18261;53.648;9.910;2022-12-16T16:39:41;112.60;;;55.97;;
31652;SDS011;18261;53.648;9.910;2022-12-16T16:42:26;116.65;;;57.45;;
31652;SDS011;18261;53.648;9.910;2022-12-16T16:45:12;144.82;;;69.07;;
31652;SDS011;18261;53.648;9.910;2022-12-16T16:48:04;109.40;;;54.70;;
31652;SDS011;18261;53.648;9.910;2022-12-16T16:50:49;113.88;;;56.20;;
31652;SDS011;18261;53.648;9.910;2022-12-16T16:53:34;122.43;;;58.03;;
31652;SDS011;18261;53.648;9.910;2022-12-16T16:56:18;118.07;;;56.72;;
31652;SDS011;18261;53.648;9.910;2022-12-16T16:59:03;118.10;;;57.67;;
31652;SDS011;18261;53.648;9.910;2022-12-16T17:02:15;189.48;;;84.03;;
31652;SDS011;18261;53.648;9.910;2022-12-16T17:05:00;158.25;;;74.82;;
31652;SDS011;18261;53.648;9.910;2022-12-16T17:07:44;126.07;;;61.25;;
31652;SDS011;18261;53.648;9.910;2022-12-16T17:13:14;147.07;;;68.68;;
31652;SDS011;18261;53.648;9.910;2022-12-16T17:15:59;123.32;;;59.10;;
31652;SDS011;18261;53.648;9.910;2022-12-16T17:18:43;112.18;;;54.75;;
31652;SDS011;18261;53.648;9.910;2022-12-16T17:21:28;107.13;;;53.55;;
31652;SDS011;18261;53.648;9.910;2022-12-16T17:24:13;124.10;;;57.22;;
31652;SDS011;18261;53.648;9.910;2022-12-16T17:29:43;113.40;;;54.70;;
31652;SDS011;18261;53.648;9.910;2022-12-16T17:32:32;113.68;;;56.55;;
31652;SDS011;18261;53.648;9.910;2022-12-16T17:38:01;123.10;;;58.58;;
31652;SDS011;18261;53.648;9.910;2022-12-16T17:40:52;117.50;;;56.92;;
31652;SDS011;18261;53.648;9.910;2022-12-16T17:43:37;115.18;;;59.40;;
31652;SDS011;18261;53.648;9.910;2022-12-16T17:46:21;121.65;;;61.05;;
31652;SDS011;18261;53.648;9.910;2022-12-16T17:49:08;120.32;;;60.17;;
31652;SDS011;18261;53.648;9.910;2022-12-16T17:51:53;131.25;;;64.13;;
31652;SDS011;18261;53.648;9.910;2022-12-16T17:54:37;123.10;;;61.17;;
31652;SDS011;18261;53.648;9.910;2022-12-16T17:57:22;133.20;;;64.88;;
31652;SDS011;18261;53.648;9.910;2022-12-16T18:00:20;139.25;;;66.53;;
31652;SDS011;18261;53.648;9.910;2022-12-16T18:05:54;110.90;;;57.45;;
31652;SDS011;18261;53.648;9.910;2022-12-16T18:08:39;110.88;;;55.45;;
31652;SDS011;18261;53.648;9.910;2022-12-16T18:11:24;121.75;;;57.03;;
31652;SDS011;18261;53.648;9.910;2022-12-16T18:14:08;118.40;;;59.47;;
31652;SDS011;18261;53.648;9.910;2022-12-16T18:16:53;121.25;;;58.70;;
31652;SDS011;18261;53.648;9.910;2022-12-16T18:19:37;117.45;;;59.92;;
31652;SDS011;18261;53.648;9.910;2022-12-16T18:22:22;142.18;;;70.53;;